Time;durP1;ratioP1;P1;durP2;ratioP2;P2;SDS_P1;SDS_P2;PMS_P1;PMS_P2;Temp;Humidity;BMP_temperature;BMP_pressure;BME280_temperature;BME280_humidity;BME280_pressure;Samples;Min_cycle;Max_cycle;Signal;HPM_P1;HPM_P2
2022/03/01 00:01:34;;;;;;;18.58;15.15;;;4.60;79.30;;;;;;6212098;23;20447;-74
2022/03/01 00:03:59;;;;;;;18.70;15.65;;;4.60;80.00;;;;;;6185320;23;20459;-74
2022/03/01 00:06:25;;;;;;;19.58;15.40;;;4.60;80.40;;;;;;6210301;23;20009;-73
2022/03/01 00:08:53;;;;;;;18.65;15.00;;;4.60;80.70;;;;;;6211769;23;20100;-73
2022/03/01 00:11:20;;;;;;;18.85;16.20;;;4.50;80.80;;;;;;6185190;23;20021;-74
2022/03/01 00:13:45;;;;;;;19.35;15.45;;;4.50;81.20;;;;;;6183526;23;20503;-74
2022/03/01 00:16:11;;;;;;;19.05;14.55;;;4.50;81.30;;;;;;6182643;23;20020;-74
2022/03/01 00:18:36;;;;;;;36.00;16.95;;;4.40;81.70;;;;;;6211787;23;20460;-74
2022/03/01 00:21:02;;;;;;;20.02;16.00;;;4.40;82.80;;;;;;6210301;23;20413;-74
2022/03/01 00:23:27;;;;;;;21.02;16.33;;;4.40;83.30;;;;;;6183551;23;20020;-74
2022/03/01 00:25:53;;;;;;;20.10;15.75;;;4.50;84.30;;;;;;6210828;23;20343;-74
2022/03/01 00:28:19;;;;;;;18.55;15.98;;;4.40;83.80;;;;;;6184100;23;20019;-73
2022/03/01 00:30:44;;;;;;;19.38;16.38;;;4.40;84.20;;;;;;6209786;23;20581;-73
2022/03/01 00:33:10;;;;;;;21.58;16.17;;;4.40;85.20;;;;;;6210444;23;20024;-72
2022/03/01 00:35:36;;;;;;;19.63;16.58;;;4.40;85.50;;;;;;6180411;23;20877;-73
2022/03/01 00:38:01;;;;;;;19.52;15.70;;;4.40;85.90;;;;;;6183132;23;20020;-72
2022/03/01 00:40:27;;;;;;;21.95;17.05;;;4.30;86.30;;;;;;6212135;23;20457;-73
2022/03/01 00:42:52;;;;;;;20.08;16.92;;;4.30;86.70;;;;;;6209259;23;20020;-73
2022/03/01 00:45:18;;;;;;;20.17;17.05;;;4.30;87.30;;;;;;6184223;23;20016;-72
2022/03/01 00:47:43;;;;;;;21.15;17.05;;;4.30;87.50;;;;;;6182359;23;20028;-73
2022/03/01 00:50:09;;;;;;;20.15;17.63;;;4.20;88.20;;;;;;6184076;23;20016;-73
2022/03/01 00:52:35;;;;;;;22.10;16.55;;;4.20;88.20;;;;;;6182993;23;20572;-73
2022/03/01 00:55:00;;;;;;;20.45;17.20;;;4.20;89.30;;;;;;6182231;23;20031;-72
2022/03/01 00:57:26;;;;;;;22.40;17.67;;;4.20;90.00;;;;;;6184320;23;20023;-72
2022/03/01 00:59:52;;;;;;;20.40;16.77;;;4.20;90.20;;;;;;6183623;23;20050;-73
2022/03/01 01:02:17;;;;;;;22.70;18.25;;;4.20;90.20;;;;;;6209438;23;20091;-73
2022/03/01 01:04:43;;;;;;;20.45;15.98;;;4.20;90.40;;;;;;6210457;23;20097;-73
2022/03/01 01:07:09;;;;;;;20.95;17.40;;;4.20;90.50;;;;;;6183085;23;20096;-73
2022/03/01 01:09:34;;;;;;;21.50;17.23;;;4.10;90.90;;;;;;6182568;23;20437;-73
2022/03/01 01:12:00;;;;;;;21.88;17.92;;;4.10;91.20;;;;;;6182595;23;20021;-74
2022/03/01 01:14:26;;;;;;;22.38;17.92;;;4.10;91.70;;;;;;6209885;23;20024;-73
2022/03/01 01:16:51;;;;;;;21.27;17.98;;;4.00;92.10;;;;;;6209178;23;20048;-73
2022/03/01 01:19:17;;;;;;;21.13;18.40;;;4.00;92.30;;;;;;6209424;23;20021;-73
2022/03/01 01:24:27;;;;;;;22.45;17.23;;;4.00;92.50;;;;;;6182475;23;20020;-72
2022/03/01 01:26:52;;;;;;;23.52;19.13;;;4.00;92.50;;;;;;6183181;23;20163;-73
2022/03/01 01:29:18;;;;;;;25.40;18.48;;;4.00;93.00;;;;;;6183808;23;20012;-73
2022/03/01 01:31:44;;;;;;;22.55;18.80;;;3.90;93.10;;;;;;6209492;23;20067;-72
2022/03/01 01:34:09;;;;;;;24.48;19.27;;;3.90;93.40;;;;;;6182603;23;20472;-73
2022/03/01 01:36:35;;;;;;;23.13;18.27;;;3.90;93.90;;;;;;6183267;23;20028;-73
2022/03/01 01:39:00;;;;;;;22.65;18.23;;;3.90;93.80;;;;;;6181510;23;20016;-73
2022/03/01 01:41:26;;;;;;;23.92;19.15;;;3.80;93.80;;;;;;6184108;23;20013;-74
2022/03/01 01:43:52;;;;;;;22.75;19.05;;;3.80;94.00;;;;;;6181676;23;20215;-72
2022/03/01 01:46:17;;;;;;;22.63;17.75;;;3.80;94.70;;;;;;6184167;23;20047;-72
2022/03/01 01:48:43;;;;;;;21.23;17.92;;;3.80;94.30;;;;;;6183027;23;20471;-72
2022/03/01 01:51:09;;;;;;;22.52;18.80;;;3.80;94.40;;;;;;6208984;23;20051;-72
2022/03/01 01:53:34;;;;;;;22.58;18.17;;;3.80;94.80;;;;;;6209603;23;20019;-72
2022/03/01 01:56:00;;;;;;;25.02;19.80;;;3.80;94.50;;;;;;6209957;23;20020;-73
2022/03/01 01:58:26;;;;;;;23.45;18.27;;;3.70;95.30;;;;;;6182036;23;20062;-72
2022/03/01 02:00:52;;;;;;;22.23;18.75;;;3.70;95.60;;;;;;6210012;23;20453;-73
2022/03/01 02:03:17;;;;;;;24.98;18.15;;;3.70;96.20;;;;;;6209489;23;20052;-73
2022/03/01 02:05:43;;;;;;;24.73;19.98;;;3.70;96.10;;;;;;6181981;23;20498;-73
2022/03/01 02:08:08;;;;;;;23.33;18.48;;;3.70;96.40;;;;;;6181888;23;20044;-73
2022/03/01 02:10:34;;;;;;;21.92;18.55;;;3.70;96.30;;;;;;6210895;23;20025;-73
2022/03/01 02:13:00;;;;;;;23.85;17.42;;;3.60;96.50;;;;;;6208664;23;20467;-74
2022/03/01 02:15:26;;;;;;;24.92;20.23;;;3.60;96.40;;;;;;6211357;23;20012;-74
2022/03/01 02:17:52;;;;;;;24.80;18.05;;;3.60;97.00;;;;;;6181418;23;20834;-74
2022/03/01 02:20:20;;;;;;;24.77;19.75;;;3.60;96.80;;;;;;6182987;23;20051;-73
2022/03/01 02:22:47;;;;;;;26.13;20.02;;;3.50;97.20;;;;;;6208162;23;20020;-74
2022/03/01 02:25:13;;;;;;;22.98;19.60;;;3.50;97.30;;;;;;6184937;23;20095;-74
2022/03/01 02:27:39;;;;;;;25.48;19.38;;;3.60;97.00;;;;;;6211506;23;20098;-73
2022/03/01 02:30:07;;;;;;;24.85;19.27;;;3.60;96.90;;;;;;6184804;23;20020;-73
2022/03/01 02:32:33;;;;;;;24.15;19.55;;;3.60;96.80;;;;;;6210829;23;20029;-74
2022/03/01 02:35:00;;;;;;;24.25;19.15;;;3.60;96.70;;;;;;6183252;23;20506;-74
2022/03/01 02:37:25;;;;;;;23.77;20.33;;;3.50;97.30;;;;;;6210956;23;20021;-74
2022/03/01 02:39:53;;;;;;;26.35;20.65;;;3.50;97.80;;;;;;6183723;23;20047;-74
2022/03/01 02:42:20;;;;;;;26.17;19.35;;;3.50;97.70;;;;;;6184009;23;20052;-72
2022/03/01 02:44:47;;;;;;;23.98;19.52;;;3.50;97.60;;;;;;6184091;23;20345;-73
2022/03/01 02:47:14;;;;;;;24.97;19.87;;;3.50;98.20;;;;;;6210352;23;20361;-73
2022/03/01 02:49:39;;;;;;;26.17;18.23;;;3.50;98.50;;;;;;6184775;23;20098;-74
2022/03/01 02:52:06;;;;;;;28.48;20.13;;;3.50;98.30;;;;;;6183719;23;20016;-73
2022/03/01 02:54:32;;;;;;;26.05;20.38;;;3.50;98.20;;;;;;6209980;23;20016;-73
2022/03/01 02:57:00;;;;;;;26.45;19.08;;;3.50;98.50;;;;;;6210380;23;20092;-73
2022/03/01 02:59:28;;;;;;;22.92;18.80;;;3.40;98.90;;;;;;6184375;23;20020;-73
2022/03/01 03:01:54;;;;;;;25.00;21.00;;;3.40;99.20;;;;;;6182925;23;20012;-72
2022/03/01 03:04:19;;;;;;;25.15;20.13;;;3.40;99.40;;;;;;6210778;23;20016;-72
2022/03/01 03:06:45;;;;;;;29.60;21.13;;;3.40;99.10;;;;;;6183753;23;20023;-72
2022/03/01 03:09:10;;;;;;;26.83;19.55;;;3.40;99.40;;;;;;6209972;23;20024;-73
2022/03/01 03:11:36;;;;;;;25.23;20.92;;;3.30;99.70;;;;;;6184432;23;20100;-72
2022/03/01 03:14:02;;;;;;;25.15;19.70;;;3.30;99.90;;;;;;6210386;23;20192;-72
2022/03/01 03:16:27;;;;;;;26.67;20.15;;;3.30;99.90;;;;;;6183257;23;20047;-73
2022/03/01 03:18:53;;;;;;;24.95;19.40;;;3.20;99.90;;;;;;6210426;23;20016;-73
2022/03/01 03:21:19;;;;;;;26.25;21.63;;;3.10;99.90;;;;;;6183983;23;20013;-72
2022/03/01 03:23:45;;;;;;;28.75;20.13;;;3.10;99.90;;;;;;6209503;23;20024;-73
2022/03/01 03:26:11;;;;;;;28.20;20.45;;;3.10;99.90;;;;;;6210480;23;20060;-73
2022/03/01 03:28:37;;;;;;;26.38;21.17;;;3.00;99.90;;;;;;6209901;23;20644;-73
2022/03/01 03:31:03;;;;;;;28.38;19.75;;;3.00;99.90;;;;;;6181525;23;20459;-73
2022/03/01 03:33:29;;;;;;;25.08;19.05;;;2.90;99.90;;;;;;6183899;23;20023;-72
2022/03/01 03:35:56;;;;;;;25.85;19.52;;;2.90;99.90;;;;;;6183586;23;20016;-72
2022/03/01 03:38:23;;;;;;;;;;;2.90;99.90;;;;;;6182331;23;20383;-73
2022/03/01 03:40:48;;;;;;;26.23;19.77;;;2.90;99.90;;;;;;6181725;23;19916;-73
2022/03/01 03:43:14;;;;;;;25.48;19.35;;;2.80;99.90;;;;;;6183206;23;20439;-73
2022/03/01 03:45:40;;;;;;;24.70;18.58;;;2.70;99.90;;;;;;6209482;23;20026;-72
2022/03/01 03:48:05;;;;;;;25.77;19.17;;;2.70;99.90;;;;;;6182811;23;20023;-73
2022/03/01 03:50:31;;;;;;;27.50;19.50;;;2.70;99.90;;;;;;6208427;23;20086;-73
2022/03/01 03:52:56;;;;;;;28.60;19.77;;;2.60;99.90;;;;;;6207253;23;20012;-73
2022/03/01 03:55:22;;;;;;;33.80;20.65;;;2.60;99.90;;;;;;6183799;23;20032;-72
2022/03/01 03:57:48;;;;;;;27.33;19.95;;;2.60;99.90;;;;;;6181683;23;20882;-73
2022/03/01 04:00:16;;;;;;;29.08;20.25;;;2.60;99.90;;;;;;6210058;23;20356;-72
2022/03/01 04:02:47;;;;;;;23.92;19.67;;;2.50;99.90;;;;;;6209622;23;20503;-72
2022/03/01 04:05:13;;;;;;;31.67;20.02;;;2.50;99.90;;;;;;6209519;23;20016;-73
2022/03/01 04:07:44;;;;;;;31.38;19.77;;;2.50;99.90;;;;;;6180636;23;20021;-72
2022/03/01 04:10:11;;;;;;;26.02;19.45;;;2.50;99.90;;;;;;6183268;23;20489;-72
2022/03/01 04:12:36;;;;;;;27.75;19.60;;;2.50;99.90;;;;;;6182650;23;20028;-73
2022/03/01 04:15:03;;;;;;;27.23;20.83;;;2.50;99.90;;;;;;6182654;23;20190;-73
2022/03/01 04:17:29;;;;;;;27.48;19.90;;;2.50;99.90;;;;;;6209969;23;20074;-72
2022/03/01 04:19:55;;;;;;;31.98;20.48;;;2.50;99.90;;;;;;6209782;23;20021;-72
2022/03/01 04:22:20;;;;;;;24.77;19.45;;;2.50;99.90;;;;;;6182389;23;20021;-72
2022/03/01 04:24:46;;;;;;;27.33;19.38;;;2.50;99.90;;;;;;6182114;23;20949;-73
2022/03/01 04:27:12;;;;;;;26.90;20.70;;;2.50;99.90;;;;;;6182043;23;20020;-72
2022/03/01 04:29:38;;;;;;;25.58;18.88;;;2.40;99.90;;;;;;6183097;23;20024;-73
2022/03/01 04:32:04;;;;;;;26.25;20.15;;;2.40;99.90;;;;;;6182268;23;20028;-73
2022/03/01 04:34:30;;;;;;;26.75;20.38;;;2.40;99.90;;;;;;6208422;23;20468;-72
2022/03/01 04:36:56;;;;;;;26.55;20.35;;;2.40;99.90;;;;;;6208013;23;20012;-73
2022/03/01 04:39:21;;;;;;;25.63;19.70;;;2.40;99.90;;;;;;6209657;23;20059;-72
2022/03/01 04:41:48;;;;;;;28.25;20.27;;;2.40;99.90;;;;;;6207866;23;20024;-72
2022/03/01 04:44:14;;;;;;;26.15;19.92;;;2.40;99.90;;;;;;6209316;23;20022;-72
2022/03/01 04:46:40;;;;;;;27.95;20.23;;;2.50;99.90;;;;;;6208172;23;20019;-73
2022/03/01 04:49:06;;;;;;;27.10;19.67;;;2.50;99.90;;;;;;6181638;23;20012;-73
2022/03/01 04:51:32;;;;;;;27.42;19.85;;;2.50;99.90;;;;;;6209549;23;20028;-73
2022/03/01 04:53:58;;;;;;;28.65;20.83;;;2.50;99.90;;;;;;6181892;23;20083;-73
2022/03/01 04:56:24;;;;;;;27.23;20.45;;;2.50;99.90;;;;;;6181068;23;20056;-73
2022/03/01 04:58:50;;;;;;;25.42;19.90;;;2.60;99.90;;;;;;6208492;23;20020;-73
2022/03/01 05:01:16;;;;;;;28.08;21.25;;;2.60;99.90;;;;;;6208370;23;20605;-73
2022/03/01 05:03:41;;;;;;;26.20;19.85;;;2.60;99.90;;;;;;6209643;23;20092;-73
2022/03/01 05:06:07;;;;;;;28.23;20.98;;;2.50;99.90;;;;;;6207964;23;20055;-72
2022/03/01 05:08:32;;;;;;;29.10;19.40;;;2.50;99.90;;;;;;6208174;23;20099;-73
2022/03/01 05:10:59;;;;;;;27.40;20.45;;;2.50;99.90;;;;;;6208803;23;20071;-72
2022/03/01 05:13:25;;;;;;;26.13;19.80;;;2.50;99.90;;;;;;6182965;23;20437;-73
2022/03/01 05:15:50;;;;;;;26.73;19.88;;;2.50;99.90;;;;;;6180085;23;20570;-73
2022/03/01 05:18:16;;;;;;;28.52;21.08;;;2.50;99.90;;;;;;6180446;23;20144;-73
2022/03/01 05:20:41;;;;;;;28.38;20.88;;;2.50;99.90;;;;;;6183443;23;20009;-72
2022/03/01 05:23:08;;;;;;;28.17;21.15;;;2.50;99.90;;;;;;6205150;23;20107;-73
2022/03/01 05:25:33;;;;;;;28.17;20.75;;;2.50;99.90;;;;;;6182860;23;20016;-72
2022/03/01 05:27:59;;;;;;;28.63;21.75;;;2.50;99.90;;;;;;6181595;23;20039;-73
2022/03/01 05:30:25;;;;;;;28.42;21.08;;;2.50;99.90;;;;;;6181605;23;20023;-73
2022/03/01 05:32:52;;;;;;;25.33;20.02;;;2.50;99.90;;;;;;6181875;23;20055;-72
2022/03/01 05:35:21;;;;;;;27.38;22.10;;;2.50;99.90;;;;;;6182781;23;20844;-72
2022/03/01 05:37:49;;;;;;;28.63;20.48;;;2.50;99.90;;;;;;6206284;23;20100;-73
2022/03/01 05:40:16;;;;;;;28.70;20.45;;;2.50;99.90;;;;;;6208646;23;20013;-72
2022/03/01 05:42:42;;;;;;;28.63;22.40;;;2.50;99.90;;;;;;6209275;23;20019;-72
2022/03/01 05:45:08;;;;;;;27.70;20.88;;;2.60;99.90;;;;;;6180725;23;20294;-73
2022/03/01 05:47:33;;;;;;;27.73;20.70;;;2.60;99.90;;;;;;6182732;23;20011;-73
2022/03/01 05:49:59;;;;;;;28.20;21.38;;;2.60;99.90;;;;;;6207054;23;20329;-73
2022/03/01 05:52:25;;;;;;;28.05;21.50;;;2.60;99.90;;;;;;6208027;23;20473;-72
2022/03/01 05:54:51;;;;;;;28.63;20.80;;;2.60;99.90;;;;;;6181963;23;20024;-72
2022/03/01 05:57:16;;;;;;;32.33;21.77;;;2.70;99.90;;;;;;6181499;23;20096;-72
2022/03/01 05:59:42;;;;;;;27.83;20.20;;;2.70;99.90;;;;;;6182567;23;20720;-73
2022/03/01 06:02:11;;;;;;;30.33;21.08;;;2.70;99.90;;;;;;6182440;23;20096;-73
2022/03/01 06:04:37;;;;;;;31.95;21.98;;;2.70;99.90;;;;;;6182378;23;20051;-73
2022/03/01 06:07:02;;;;;;;26.58;20.88;;;2.70;99.90;;;;;;6206629;23;20626;-72
2022/03/01 06:09:28;;;;;;;30.23;20.67;;;2.80;99.90;;;;;;6211154;23;20099;-72
2022/03/01 06:11:54;;;;;;;28.33;21.23;;;2.70;99.90;;;;;;6181518;23;20027;-73
2022/03/01 06:14:19;;;;;;;29.20;21.17;;;2.80;99.90;;;;;;6182447;23;20044;-72
2022/03/01 06:16:45;;;;;;;28.23;20.30;;;2.80;99.90;;;;;;6207763;23;20388;-72
2022/03/01 06:19:11;;;;;;;28.30;22.30;;;2.80;99.90;;;;;;6179858;23;20334;-73
2022/03/01 06:21:37;;;;;;;28.65;21.25;;;2.80;99.90;;;;;;6182660;23;20017;-72
2022/03/01 06:24:04;;;;;;;29.17;21.70;;;2.80;99.90;;;;;;6178541;23;20031;-73
2022/03/01 06:26:30;;;;;;;30.02;21.02;;;2.80;99.90;;;;;;6207664;23;20012;-73
2022/03/01 06:28:55;;;;;;;28.30;20.73;;;2.80;99.90;;;;;;6180193;23;20052;-73
2022/03/01 06:31:21;;;;;;;29.30;21.23;;;2.80;99.90;;;;;;6208257;23;20051;-73
2022/03/01 06:33:47;;;;;;;29.70;21.85;;;2.90;99.90;;;;;;6206901;23;20020;-73
2022/03/01 06:36:12;;;;;;;29.33;21.90;;;2.90;99.90;;;;;;6208142;23;20440;-72
2022/03/01 06:38:38;;;;;;;29.30;20.80;;;2.90;99.90;;;;;;6207008;23;20020;-73
2022/03/01 06:41:04;;;;;;;30.30;21.33;;;2.90;99.90;;;;;;6180718;23;20024;-73
2022/03/01 06:43:29;;;;;;;27.40;22.45;;;3.10;99.90;;;;;;6207121;23;20016;-73
2022/03/01 06:45:55;;;;;;;29.30;21.00;;;3.20;99.90;;;;;;6180546;23;20013;-73
2022/03/01 06:48:22;;;;;;;28.52;21.33;;;3.20;99.90;;;;;;6201954;23;20024;-73
2022/03/01 06:50:48;;;;;;;29.02;22.52;;;3.20;99.90;;;;;;6180214;23;20084;-73
2022/03/01 06:53:14;;;;;;;28.90;20.58;;;3.20;99.90;;;;;;6207717;23;20152;-73
2022/03/01 06:55:43;;;;;;;29.55;20.77;;;3.20;99.90;;;;;;6182306;23;20056;-73
2022/03/01 06:58:10;;;;;;;28.23;21.45;;;3.10;99.90;;;;;;6209896;23;20020;-71
2022/03/01 07:00:35;;;;;;;32.67;23.53;;;3.10;99.90;;;;;;6207126;23;20016;-73
2022/03/01 07:03:01;;;;;;;28.02;20.00;;;3.10;99.90;;;;;;6208661;23;20060;-73
2022/03/01 07:05:27;;;;;;;30.90;21.48;;;3.10;99.90;;;;;;6182605;23;20051;-73
2022/03/01 07:07:52;;;;;;;31.10;21.40;;;3.00;99.90;;;;;;6207022;23;20024;-73
2022/03/01 07:10:18;;;;;;;30.17;21.33;;;3.00;99.90;;;;;;6183192;23;20020;-73
2022/03/01 07:12:45;;;;;;;33.13;22.10;;;3.00;99.90;;;;;;6181442;23;20012;-73
2022/03/01 07:15:11;;;;;;;31.25;22.25;;;3.00;99.90;;;;;;6207476;23;20020;-73
2022/03/01 07:17:37;;;;;;;33.13;23.48;;;3.00;99.90;;;;;;6179650;23;20016;-73
2022/03/01 07:20:04;;;;;;;35.30;27.73;;;3.00;99.90;;;;;;6206757;23;20819;-74
2022/03/01 07:22:30;;;;;;;33.30;25.38;;;3.00;99.90;;;;;;6180617;23;20027;-73
2022/03/01 07:24:56;;;;;;;33.25;25.58;;;3.00;99.90;;;;;;6209942;23;20023;-73
2022/03/01 07:27:22;;;;;;;33.15;26.75;;;3.10;99.90;;;;;;6209090;23;20783;-73
2022/03/01 07:29:47;;;;;;;32.70;25.52;;;3.10;99.90;;;;;;6206449;23;20095;-73
2022/03/01 07:32:13;;;;;;;33.45;26.77;;;3.20;99.90;;;;;;6207599;23;20032;-73
2022/03/01 07:34:38;;;;;;;29.83;23.58;;;3.20;99.90;;;;;;6183593;23;20016;-73
2022/03/01 07:37:05;;;;;;;31.35;22.77;;;3.30;99.90;;;;;;6207732;23;20448;-74
2022/03/01 07:39:31;;;;;;;29.58;24.08;;;3.40;99.90;;;;;;6209469;23;20441;-72
2022/03/01 07:41:57;;;;;;;31.58;23.23;;;3.40;99.90;;;;;;6181490;23;20024;-74
2022/03/01 07:44:22;;;;;;;29.92;23.52;;;3.50;99.90;;;;;;6181119;23;20039;-74
2022/03/01 07:46:48;;;;;;;30.48;24.27;;;3.60;99.90;;;;;;6182099;23;20012;-74
2022/03/01 07:49:14;;;;;;;30.58;22.83;;;3.70;99.90;;;;;;6181934;23;20017;-74
2022/03/01 07:51:43;;;;;;;30.35;24.25;;;3.70;99.90;;;;;;6182278;23;20084;-73
2022/03/01 07:54:09;;;;;;;29.38;22.65;;;3.80;99.90;;;;;;6208330;23;20024;-74
2022/03/01 07:56:35;;;;;;;29.88;24.08;;;3.80;99.90;;;;;;6209561;23;20032;-74
2022/03/01 07:59:00;;;;;;;32.42;24.27;;;3.90;99.90;;;;;;6183417;23;20056;-74
2022/03/01 08:01:26;;;;;;;30.90;22.90;;;3.90;99.90;;;;;;6182852;23;20210;-75
2022/03/01 08:03:52;;;;;;;29.25;22.88;;;4.00;99.90;;;;;;6181336;23;20017;-73
2022/03/01 08:06:17;;;;;;;27.63;21.80;;;4.10;99.90;;;;;;6182696;23;20012;-74
2022/03/01 08:08:43;;;;;;;28.65;23.13;;;4.20;99.90;;;;;;6182027;23;20032;-73
2022/03/01 08:11:09;;;;;;;26.95;21.73;;;4.20;99.90;;;;;;6181515;23;20337;-74
2022/03/01 08:13:35;;;;;;;28.65;22.58;;;4.20;99.90;;;;;;6182892;23;20020;-74
2022/03/01 08:16:03;;;;;;;28.52;22.70;;;4.30;99.90;;;;;;6183445;23;20009;-73
2022/03/01 08:18:29;;;;;;;31.77;23.05;;;4.30;99.90;;;;;;6182959;23;20012;-74
2022/03/01 08:20:55;;;;;;;30.15;23.13;;;4.40;99.90;;;;;;6209859;23;20016;-74
2022/03/01 08:23:20;;;;;;;27.17;21.48;;;4.40;99.90;;;;;;6210152;23;20016;-73
2022/03/01 08:25:46;;;;;;;31.45;23.80;;;4.50;99.90;;;;;;6182064;23;20023;-74
2022/03/01 08:28:15;;;;;;;28.25;22.17;;;4.50;99.60;;;;;;6183237;23;20591;-74
2022/03/01 08:30:40;;;;;;;27.50;22.65;;;4.60;99.10;;;;;;6208135;23;20024;-74
2022/03/01 08:33:06;;;;;;;25.23;21.55;;;4.60;98.70;;;;;;6181808;23;20013;-79
2022/03/01 08:35:35;;;;;;;27.75;21.85;;;4.70;99.10;;;;;;6212253;23;20012;-76
2022/03/01 08:38:05;;;;;;;29.58;21.95;;;4.70;99.40;;;;;;6183709;23;20018;-76
2022/03/01 08:40:33;;;;;;;24.92;20.20;;;4.80;99.10;;;;;;6211392;23;20088;-76
2022/03/01 08:42:59;;;;;;;26.60;20.58;;;4.90;98.10;;;;;;6183615;23;20023;-75
2022/03/01 08:45:26;;;;;;;26.33;21.60;;;4.90;98.00;;;;;;6210973;23;20567;-75
2022/03/01 08:47:52;;;;;;;25.08;20.80;;;4.90;97.40;;;;;;6183398;23;20016;-76
2022/03/01 08:50:18;;;;;;;26.55;20.73;;;4.90;97.00;;;;;;6184002;23;20349;-76
2022/03/01 08:52:44;;;;;;;24.95;21.23;;;5.00;96.80;;;;;;6210100;23;20051;-78
2022/03/01 08:55:10;;;;;;;26.88;21.48;;;5.00;96.10;;;;;;6183782;23;20099;-76
2022/03/01 08:57:37;;;;;;;25.83;21.77;;;5.00;96.00;;;;;;6211567;23;20021;-76
2022/03/01 09:00:09;;;;;;;26.42;21.15;;;5.10;96.20;;;;;;6210276;23;20850;-76
2022/03/01 09:02:34;;;;;;;25.45;21.30;;;5.00;95.30;;;;;;6211575;23;20483;-77
2022/03/01 09:05:00;;;;;;;26.60;22.33;;;5.00;94.80;;;;;;6183457;23;20055;-75
2022/03/01 09:07:26;;;;;;;26.33;21.65;;;5.10;95.00;;;;;;6183628;23;20094;-74
2022/03/01 09:09:52;;;;;;;25.33;21.20;;;5.10;95.00;;;;;;6211265;23;20012;-74
2022/03/01 09:12:17;;;;;;;26.15;21.17;;;5.10;95.30;;;;;;6212162;23;20076;-73
2022/03/01 09:14:43;;;;;;;26.23;21.00;;;5.10;95.20;;;;;;6182332;23;20063;-74
2022/03/01 09:17:09;;;;;;;25.92;19.63;;;5.20;95.10;;;;;;6183031;23;20104;-72
2022/03/01 09:19:35;;;;;;;25.95;20.45;;;5.20;95.70;;;;;;6184431;23;20341;-72
2022/03/01 09:22:00;;;;;;;24.00;20.10;;;5.30;95.10;;;;;;6210289;23;20016;-74
2022/03/01 09:24:26;;;;;;;25.42;20.42;;;5.30;94.80;;;;;;6184784;23;20030;-73
2022/03/01 09:26:51;;;;;;;26.27;21.83;;;5.30;95.00;;;;;;6210685;23;20013;-73
2022/03/01 09:29:17;;;;;;;25.00;21.55;;;5.40;95.20;;;;;;6183487;23;20032;-74
2022/03/01 09:31:43;;;;;;;26.65;20.65;;;5.50;95.30;;;;;;6209894;23;20035;-74
2022/03/01 09:34:08;;;;;;;28.08;23.08;;;5.60;95.00;;;;;;6184145;23;20047;-74
2022/03/01 09:36:34;;;;;;;28.08;22.00;;;5.70;94.30;;;;;;6182833;23;20047;-75
2022/03/01 09:38:59;;;;;;;29.27;22.90;;;5.80;94.20;;;;;;6182649;23;20583;-78
2022/03/01 09:41:25;;;;;;;27.52;21.48;;;5.80;93.90;;;;;;6182058;23;20095;-74
2022/03/01 09:43:58;;;;;;;26.85;21.38;;;5.80;93.50;;;;;;6181316;23;20114;-76
2022/03/01 09:46:23;;;;;;;26.17;22.17;;;5.80;92.80;;;;;;6184004;23;20718;-78
2022/03/01 09:48:49;;;;;;;27.52;21.05;;;6.00;93.40;;;;;;6211449;23;20013;-77
2022/03/01 09:51:15;;;;;;;24.83;20.58;;;6.00;93.60;;;;;;6185105;23;20035;-78
2022/03/01 09:53:42;;;;;;;25.48;19.73;;;6.10;92.30;;;;;;6211951;23;20019;-78
2022/03/01 09:56:09;;;;;;;;;;;6.20;91.70;;;;;;6211226;23;20103;-77
2022/03/01 09:58:35;;;;;;;23.42;19.27;;;6.30;92.00;;;;;;6184285;23;19962;-78
2022/03/01 10:01:02;;;;;;;23.15;18.40;;;6.40;91.30;;;;;;6210342;23;20012;-78
2022/03/01 10:03:28;;;;;;;23.13;18.60;;;6.40;90.50;;;;;;6210282;23;20017;-78
2022/03/01 10:06:05;;;;;;;25.33;19.58;;;6.50;88.60;;;;;;6183932;23;20256;-78
2022/03/01 10:08:31;;;;;;;21.85;18.15;;;6.60;87.90;;;;;;6183042;23;20049;-78
2022/03/01 10:10:57;;;;;;;23.05;17.88;;;6.70;85.90;;;;;;6183306;23;20016;-77
2022/03/01 10:13:28;;;;;;;23.45;18.55;;;6.80;84.00;;;;;;6184303;23;20031;-77
2022/03/01 10:16:07;;;;;;;21.23;17.90;;;6.80;84.00;;;;;;6210212;23;20020;-77
2022/03/01 10:18:36;;;;;;;20.85;17.67;;;7.00;84.20;;;;;;6182941;23;20020;-78
2022/03/01 10:21:09;;;;;;;22.58;17.75;;;7.10;82.30;;;;;;6183344;23;20106;-78
2022/03/01 10:23:35;;;;;;;21.95;17.63;;;7.20;80.50;;;;;;6183699;23;20009;-78
2022/03/01 10:26:17;;;;;;;25.10;20.25;;;7.30;78.80;;;;;;6209599;23;20021;-78
2022/03/01 10:28:45;;;;;;;23.83;19.48;;;7.30;76.80;;;;;;6185677;23;20032;-78
2022/03/01 10:31:24;;;;;;;22.17;17.63;;;7.40;76.70;;;;;;6185867;23;20063;-78
2022/03/01 10:34:00;;;;;;;24.15;17.67;;;7.40;74.90;;;;;;6211254;23;20433;-78
2022/03/01 10:36:31;;;;;;;21.63;17.88;;;7.40;73.90;;;;;;6211092;23;20047;-75
2022/03/01 10:39:00;;;;;;;20.77;16.67;;;7.40;74.80;;;;;;6183100;23;20101;-76
2022/03/01 10:41:31;;;;;;;22.10;18.42;;;7.30;74.60;;;;;;6185963;23;20016;-76
2022/03/01 10:43:59;;;;;;;23.70;18.67;;;7.30;74.50;;;;;;6185402;23;20437;-76
2022/03/01 10:46:25;;;;;;;22.92;17.75;;;7.40;74.50;;;;;;6185298;23;20013;-77
2022/03/01 10:49:05;;;;;;;21.98;17.33;;;7.40;74.30;;;;;;6185283;23;20047;-77
2022/03/01 10:51:32;;;;;;;22.40;18.45;;;7.50;73.50;;;;;;6211979;23;21051;-77
2022/03/01 10:53:59;;;;;;;24.80;18.58;;;7.40;73.50;;;;;;6183877;23;20021;-73
2022/03/01 10:56:37;;;;;;;23.13;18.10;;;7.40;73.80;;;;;;6211319;23;20013;-73
2022/03/01 10:59:03;;;;;;;;;;;7.50;73.70;;;;;;6211922;23;20024;-73
2022/03/01 11:01:29;;;;;;;26.40;19.37;;;7.50;75.40;;;;;;6185373;23;19915;-73
2022/03/01 11:03:55;;;;;;;25.42;19.63;;;7.50;76.40;;;;;;6185042;23;20259;-71
2022/03/01 11:06:22;;;;;;;23.73;19.00;;;7.60;74.80;;;;;;6213047;23;20339;-71
2022/03/01 11:08:48;;;;;;;19.90;17.33;;;7.70;74.90;;;;;;6184733;23;20016;-72
2022/03/01 11:11:15;;;;;;;23.27;17.60;;;7.80;74.90;;;;;;6185956;23;20088;-72
2022/03/01 11:13:45;;;;;;;22.70;17.73;;;7.90;74.90;;;;;;6183341;23;20020;-72
2022/03/01 11:16:41;;;;;;;21.38;18.15;;;8.00;73.90;;;;;;6184145;23;20016;-75
2022/03/01 11:19:50;;;;;;;24.67;19.02;;;8.00;72.20;;;;;;6184957;23;20078;-73
2022/03/01 11:22:27;;;;;;;20.92;17.83;;;8.10;72.60;;;;;;6184418;23;20021;-73
2022/03/01 11:24:53;;;;;;;23.08;18.10;;;8.20;72.90;;;;;;6184802;23;20111;-72
2022/03/01 11:27:24;;;;;;;20.13;17.05;;;8.30;71.90;;;;;;6185545;23;20110;-74
2022/03/01 11:29:51;;;;;;;20.67;17.17;;;8.40;70.80;;;;;;6183447;23;20023;-74
2022/03/01 11:32:22;;;;;;;22.35;17.30;;;8.40;70.20;;;;;;6185197;23;20349;-75
2022/03/01 11:35:01;;;;;;;20.77;16.80;;;8.40;69.90;;;;;;6183484;23;20031;-77
2022/03/01 11:37:27;;;;;;;21.05;17.30;;;8.40;69.10;;;;;;6210777;23;20043;-79
2022/03/01 11:40:22;;;;;;;21.73;17.58;;;8.50;69.40;;;;;;6185817;23;20448;-79
2022/03/01 11:42:48;;;;;;;29.05;19.45;;;8.50;69.50;;;;;;6211499;23;20047;-76
2022/03/01 11:45:18;;;;;;;23.27;18.48;;;8.60;71.00;;;;;;6211921;23;20345;-78
2022/03/01 11:47:48;;;;;;;24.73;18.63;;;8.70;70.80;;;;;;6212693;23;20027;-79
2022/03/01 11:50:17;;;;;;;24.52;17.80;;;8.80;71.50;;;;;;6184447;23;20016;-79
2022/03/01 11:52:53;;;;;;;23.10;18.42;;;8.90;71.70;;;;;;6211238;23;20017;-79
2022/03/01 11:55:19;;;;;;;23.65;17.67;;;9.00;71.50;;;;;;6210578;23;20016;-79
2022/03/01 11:57:45;;;;;;;24.20;18.02;;;9.00;70.90;;;;;;6183888;23;20107;-79
2022/03/01 12:00:15;;;;;;;22.08;17.48;;;9.10;71.70;;;;;;6183165;23;20076;-79
2022/03/01 12:02:45;;;;;;;22.63;17.58;;;9.10;71.40;;;;;;6183577;23;20095;-79
2022/03/01 12:05:23;;;;;;;21.75;18.05;;;9.20;70.70;;;;;;6182342;23;20020;-78
2022/03/01 12:07:53;;;;;;;23.38;17.83;;;9.20;70.20;;;;;;6210869;23;20019;-79
2022/03/01 12:10:24;;;;;;;21.40;17.33;;;9.30;70.40;;;;;;6183825;23;20352;-75
2022/03/01 12:12:54;;;;;;;22.58;17.85;;;9.30;70.50;;;;;;6186439;23;20016;-75
2022/03/01 12:15:54;;;;;;;22.88;17.38;;;9.30;69.50;;;;;;6210502;23;20016;-75
2022/03/01 12:18:27;;;;;;;24.75;17.73;;;9.30;67.80;;;;;;6183833;23;20016;-73
2022/03/01 12:20:52;;;;;;;23.52;18.35;;;9.20;67.70;;;;;;6183222;23;20029;-73
2022/03/01 12:23:30;;;;;;;22.35;18.13;;;9.20;68.20;;;;;;6185107;23;20017;-74
2022/03/01 12:25:58;;;;;;;;;;;9.30;68.60;;;;;;6210875;23;20482;-73
2022/03/01 12:28:25;;;;;;;21.92;17.75;;;9.20;69.00;;;;;;6184390;23;19927;-72
2022/03/01 12:30:50;;;;;;;22.38;17.92;;;9.30;69.40;;;;;;6183004;23;20071;-74
2022/03/01 12:33:18;;;;;;;20.98;18.67;;;9.30;68.80;;;;;;6184155;23;20012;-75
2022/03/01 12:35:55;;;;;;;22.25;17.17;;;9.40;68.00;;;;;;6210558;23;20032;-75
2022/03/01 12:38:21;;;;;;;23.17;17.35;;;9.40;67.70;;;;;;6184156;23;20020;-74
2022/03/01 12:40:46;;;;;;;22.80;18.25;;;9.40;67.90;;;;;;6210331;23;20028;-73